KPHD

Details ICAO KPHD (PHD)
Name HARRY CLEVER FLD
Region United States
Timezone America/New_York (UTC-5.0)
Plans Departing 1
Arriving 9
Stats Elevation 894 ft / 272 m (AMSL)
Location 40.469765° -81.420087°
Runways 2
Magnetic Variation 8.333° W
Sunrise 2017-12-12 12:41:14 UTC / 2017-12-12 07:41:14 Local
Sunset 2017-12-12 22:00:39 UTC / 2017-12-12 17:00:39 Local
Advertisement - Login to hide

Runways

ID Width Length Bearing (true) Bearing (mag) Surface Threshold Offset Overrun Length
11 98 ft / 30 m 2,052 ft / 625 m 108.34° 116.67° Grass 0 ft / 0 m 0 ft / 0 m
14 98 ft / 30 m 3,950 ft / 1,204 m 139.40° 147.73° Asphalt 322 ft / 98 m 0 ft / 0 m
29 98 ft / 30 m 2,052 ft / 625 m 288.35° 296.68° Grass 0 ft / 0 m 0 ft / 0 m
32 98 ft / 30 m 3,950 ft / 1,204 m 319.41° 327.74° Asphalt 0 ft / 0 m 0 ft / 0 m

Map

Weather


0- 5 10 15 20 25 30 35+ Temperature / ° C

Clouds and Precipitation
Forecast for 2017-12-13 00:00 UTC. Updated an hour ago

Ground ~20,000 ft ~40,000 ft Winds

METAR

KPHD 121953Z AUTO 31014G21KT 10SM OVC050 M06/M14 A2981 RMK AO2 SLP106 T10561144 $

TAF

Not found

Frequencies

Recorded 121.42 MHz ASOS
Approach 125.50 MHz AKRON CANTON APP/DEP
Unicom 122.80 MHz CTAF/UNICOM
Warning: Do not use this data for real-world aviation or navigation. No guarantee of current accuracy is given.